Bel Marin Keyes, California
Current Conditions -  °F | °C
As of 5:15 AM on Thursday 27 Nov 2014 (Local Time) from KDVO Reporting Station
Haze Haze  
Wind Chill: 41°   Ceiling: Unl
Heat Index: 41°   Visibility: 1.5mi
Dew Point: 41°   Wind: 3mph
Humidity: 100%   Direction: 320°NW
Pressure: 30.19"   Gusts: NA
Location:  38.0639°N, 122.532°W
Report Text: KDVO 271315Z AUTO 32003KT 1 1/2SM BR CLR 05/05 A3019 RMK AO2
Loading
Personal Weather Stations






























Interactive Weather Map New forecast layout! Learn more

10-Day Weather Forecast

Advertisements
Track Severe Weather on mobile